Time;durP1;ratioP1;P1;durP2;ratioP2;P2;SDS_P1;SDS_P2;PMS_P1;PMS_P2;Temp;Humidity;BMP_temperature;BMP_pressure;BME280_temperature;BME280_humidity;BME280_pressure;Samples;Min_cycle;Max_cycle;Signal;HPM_P1;HPM_P2
2022/11/04 00:02:05;;;;;;;7.67;6.70;;;14.80;77.90;15.00;95402.00;;;;5016104;28;20201;-81
2022/11/04 00:04:34;;;;;;;5.90;5.33;;;14.80;77.90;15.00;95409.00;;;;5018985;28;20649;-81
2022/11/04 00:08:22;;;;;;;6.30;5.20;;;14.80;77.90;15.00;95408.00;;;;5014837;28;20198;-81
2022/11/04 00:09:48;;;;;;;5.33;4.83;;;14.90;77.90;15.00;95414.00;;;;5015744;28;20663;-80
2022/11/04 00:12:23;;;;;;;4.50;4.10;;;14.90;77.80;15.10;95414.00;;;;5023108;28;20217;-81
2022/11/04 00:14:51;;;;;;;4.40;4.00;;;14.90;77.80;15.10;95436.00;;;;5011999;28;20751;-80
2022/11/04 00:17:21;;;;;;;4.07;3.73;;;14.90;77.70;15.10;95433.00;;;;5013509;28;20206;-80
2022/11/04 00:33:24;;;;;;;3.70;3.40;;;15.10;77.30;15.30;95461.00;;;;5016500;28;20197;-81
2022/11/04 00:33:48;;;;;;;3.13;2.83;;;15.10;77.30;15.40;95463.00;;;;5010605;28;20710;-81
2022/11/04 00:36:17;;;;;;;3.43;3.13;;;15.20;77.30;15.40;95476.00;;;;5006168;28;20202;-80
2022/11/04 00:38:45;;;;;;;3.23;2.73;;;15.20;77.00;15.40;95471.00;;;;5016069;28;20799;-81
2022/11/04 00:41:25;;;;;;;3.17;2.93;;;15.30;77.10;15.50;95474.00;;;;5025221;28;20544;-81
2022/11/04 00:43:53;;;;;;;2.80;2.60;;;15.30;76.90;15.50;95476.00;;;;5005593;28;20249;-80
2022/11/04 00:46:20;;;;;;;3.80;3.20;;;15.40;76.70;15.60;95483.00;;;;5024630;28;20715;-81
2022/11/04 00:48:48;;;;;;;3.67;2.63;;;15.40;76.60;15.60;95476.00;;;;5012048;28;20270;-80
2022/11/04 00:51:17;;;;;;;2.97;2.77;;;15.40;76.40;15.60;95472.00;;;;5017584;28;20201;-81
2022/11/04 00:53:44;;;;;;;3.17;2.87;;;15.50;76.40;15.70;95475.00;;;;5013687;28;20226;-81
2022/11/04 00:56:11;;;;;;;3.07;2.87;;;15.50;76.20;15.70;95485.00;;;;5021663;28;20206;-80
2022/11/04 00:58:38;;;;;;;2.87;2.63;;;15.60;76.10;15.80;95485.00;;;;5014035;28;20264;-80
2022/11/04 01:01:10;;;;;;;2.60;2.40;;;15.60;76.10;15.80;95487.00;;;;5016833;28;20226;-80
2022/11/04 01:03:39;;;;;;;2.60;2.40;;;15.60;75.80;15.80;95494.00;;;;4996313;28;20679;-80
2022/11/04 01:06:06;;;;;;;2.37;2.17;;;15.60;75.80;15.80;95509.00;;;;5003933;28;20194;-80
2022/11/04 01:08:35;;;;;;;2.23;2.07;;;15.70;75.80;15.90;95514.00;;;;5016463;28;20236;-81
2022/11/04 01:11:03;;;;;;;2.27;2.07;;;15.70;75.60;15.90;95514.00;;;;5026941;28;20194;-80
2022/11/04 01:13:30;;;;;;;3.03;2.10;;;15.70;75.70;15.90;95520.00;;;;5019084;28;20226;-80
2022/11/04 01:15:58;;;;;;;2.10;2.00;;;15.70;75.60;15.90;95526.00;;;;5016161;28;20617;-80
2022/11/04 01:18:27;;;;;;;2.27;2.03;;;15.70;75.50;15.80;95526.00;;;;5010210;28;20258;-80
2022/11/04 01:20:55;;;;;;;2.00;1.80;;;15.70;75.40;15.80;95531.00;;;;5001049;28;20248;-80
2022/11/04 01:23:22;;;;;;;1.77;1.67;;;15.70;75.40;15.80;95541.00;;;;5015217;28;20245;-80
2022/11/04 01:25:50;;;;;;;2.10;1.90;;;15.70;75.20;15.80;95530.00;;;;5015791;28;20217;-80
2022/11/04 01:28:18;;;;;;;1.87;1.77;;;15.70;75.30;15.80;95535.00;;;;5015229;28;20228;-80
2022/11/04 01:30:45;;;;;;;1.97;1.70;;;15.70;75.30;15.80;95548.00;;;;5015396;28;20207;-80
2022/11/04 01:33:12;;;;;;;1.60;1.50;;;15.70;75.30;15.80;95546.00;;;;5021469;28;20283;-80
2022/11/04 01:35:39;;;;;;;1.40;1.30;;;15.70;75.50;15.80;95543.00;;;;5016769;28;20727;-80
2022/11/04 01:38:06;;;;;;;1.40;1.30;;;15.70;75.50;15.70;95545.00;;;;5018903;28;20246;-80
2022/11/04 01:40:37;;;;;;;1.73;1.63;;;15.70;75.50;15.70;95555.00;;;;5019918;28;20229;-80
2022/11/04 01:43:14;;;;;;;2.20;1.70;;;15.70;75.70;15.70;95553.00;;;;5019497;28;20265;-80
2022/11/04 01:45:43;;;;;;;1.53;1.43;;;15.60;75.90;15.70;95548.00;;;;5027224;28;20186;-81
2022/11/04 01:48:19;;;;;;;1.27;1.17;;;15.60;76.00;15.70;95546.00;;;;5022757;28;20198;-81
2022/11/04 01:50:48;;;;;;;1.30;1.20;;;15.60;76.30;15.70;95546.00;;;;5018025;28;20662;-81
2022/11/04 01:53:22;;;;;;;1.17;1.07;;;15.60;76.30;15.60;95558.00;;;;5025841;28;20221;-80
2022/11/04 01:55:55;;;;;;;1.50;1.40;;;15.60;76.50;15.70;95552.00;;;;5025514;28;20191;-80
2022/11/04 01:58:29;;;;;;;2.47;1.70;;;15.60;76.70;15.60;95552.00;;;;5018266;28;20221;-81
2022/11/04 02:00:56;;;;;;;1.20;1.10;;;15.60;76.80;15.60;95547.00;;;;5019307;28;20204;-80
2022/11/04 02:03:30;;;;;;;1.37;1.20;;;15.50;76.70;15.60;95546.00;;;;5012721;28;20244;-81
2022/11/04 02:05:58;;;;;;;1.30;1.20;;;15.50;76.80;15.60;95531.00;;;;5011064;28;20281;-81
2022/11/04 02:08:26;;;;;;;1.20;1.10;;;15.50;76.70;15.50;95524.00;;;;5019313;28;20233;-81
2022/11/04 02:10:59;;;;;;;1.50;1.20;;;15.50;76.90;15.50;95526.00;;;;5013047;28;21019;-80
2022/11/04 02:13:30;;;;;;;1.03;1.03;;;15.40;77.00;15.50;95528.00;;;;5004221;28;20226;-80
2022/11/04 02:16:09;;;;;;;1.07;1.07;;;15.40;77.00;15.50;95523.00;;;;5021087;28;20193;-80
2022/11/04 02:18:54;;;;;;;1.10;1.00;;;15.40;77.10;15.50;95520.00;;;;5025382;28;20258;-81
2022/11/04 02:22:10;;;;;;;0.97;0.97;;;15.40;77.20;15.40;95511.00;;;;5015077;28;20659;-80
2022/11/04 02:25:05;;;;;;;0.93;0.90;;;15.40;77.20;15.40;95515.00;;;;5016299;28;20628;-80
2022/11/04 02:27:59;;;;;;;1.40;0.90;;;15.40;77.00;15.40;95514.00;;;;5010896;28;20203;-80
2022/11/04 02:30:34;;;;;;;0.80;0.80;;;15.30;77.00;15.40;95518.00;;;;5020955;28;20237;-80
2022/11/04 02:33:20;;;;;;;1.43;1.00;;;15.30;77.10;15.40;95523.00;;;;5022178;28;20244;-80
2022/11/04 02:36:02;;;;;;;1.00;0.90;;;15.30;77.20;15.40;95529.00;;;;5019239;28;20206;-81
2022/11/04 02:38:45;;;;;;;1.17;1.07;;;15.30;77.00;15.40;95532.00;;;;5025064;28;20222;-80
2022/11/04 02:41:21;;;;;;;1.03;0.90;;;15.30;77.00;15.40;95532.00;;;;5018256;28;20285;-81
2022/11/04 02:44:02;;;;;;;0.83;0.83;;;15.30;77.50;15.40;95534.00;;;;5027479;28;20216;-81
2022/11/04 02:46:38;;;;;;;1.03;0.93;;;15.30;76.90;15.40;95534.00;;;;5018050;28;20263;-80
2022/11/04 02:49:13;;;;;;;0.80;0.80;;;15.30;76.80;15.40;95532.00;;;;5014959;28;20281;-80
2022/11/04 02:51:47;;;;;;;0.97;0.97;;;15.30;76.70;15.30;95537.00;;;;5013707;28;20190;-80
2022/11/04 02:54:20;;;;;;;1.67;1.00;;;15.30;76.60;15.30;95535.00;;;;5011889;28;20657;-80
2022/11/04 02:56:51;;;;;;;0.80;0.80;;;15.30;76.30;15.30;95534.00;;;;5024267;28;20911;-80
2022/11/04 02:59:28;;;;;;;0.70;0.70;;;15.20;76.10;15.30;95529.00;;;;5011653;28;20217;-81
2022/11/04 03:02:00;;;;;;;0.57;0.57;;;15.20;76.20;15.30;95537.00;;;;5018045;28;20636;-80
2022/11/04 03:04:33;;;;;;;0.70;0.70;;;15.20;76.20;15.30;95532.00;;;;5022555;28;20253;-80
2022/11/04 03:07:03;;;;;;;0.73;0.73;;;15.20;76.20;15.30;95537.00;;;;5009734;28;20289;-81
2022/11/04 03:09:34;;;;;;;0.57;0.57;;;15.20;76.10;15.30;95534.00;;;;5027923;28;20651;-80
2022/11/04 03:12:08;;;;;;;0.70;0.70;;;15.20;75.80;15.30;95530.00;;;;5017413;28;20198;-81
2022/11/04 03:14:42;;;;;;;1.57;0.80;;;15.20;75.80;15.30;95540.00;;;;5019451;28;20221;-80
2022/11/04 03:17:21;;;;;;;0.70;0.70;;;15.20;75.70;15.30;95536.00;;;;5022193;28;20217;-80
2022/11/04 03:19:56;;;;;;;0.73;0.73;;;15.10;75.40;15.30;95543.00;;;;5020518;28;20206;-80
2022/11/04 03:22:28;;;;;;;0.53;0.53;;;15.20;75.50;15.20;95540.00;;;;5018438;28;20861;-80
2022/11/04 03:24:56;;;;;;;0.50;0.50;;;15.10;75.50;15.20;95535.00;;;;5026605;28;20227;-80
2022/11/04 03:27:37;;;;;;;0.53;0.53;;;15.10;75.40;15.20;95532.00;;;;5027827;28;20218;-80
2022/11/04 03:30:09;;;;;;;0.40;0.40;;;15.10;75.20;15.20;95530.00;;;;5023773;28;20195;-80
2022/11/04 03:32:46;;;;;;;0.40;0.40;;;15.10;75.20;15.20;95529.00;;;;5019607;28;20190;-80
2022/11/04 03:35:16;;;;;;;0.70;0.60;;;15.10;75.00;15.20;95535.00;;;;5023217;28;20649;-79
2022/11/04 03:37:45;;;;;;;0.57;0.57;;;15.10;74.90;15.20;95534.00;;;;5021606;28;20242;-81
2022/11/04 03:40:14;;;;;;;0.80;0.50;;;15.10;74.90;15.20;95537.00;;;;5021641;28;20229;-83
2022/11/04 03:42:48;;;;;;;0.50;0.50;;;15.10;74.80;15.20;95528.00;;;;5000958;28;20253;-83
2022/11/04 03:45:16;;;;;;;0.27;0.27;;;15.10;74.80;15.20;95544.00;;;;5014315;28;20255;-83
2022/11/04 03:47:45;;;;;;;0.40;0.40;;;15.10;74.80;15.20;95551.00;;;;5016898;28;20608;-83
2022/11/04 03:50:26;;;;;;;0.40;0.40;;;15.10;74.80;15.20;95551.00;;;;5025746;28;20644;-82
2022/11/04 03:52:53;;;;;;;0.40;0.40;;;15.10;74.70;15.20;95548.00;;;;5016949;28;20209;-82
2022/11/04 03:55:22;;;;;;;0.40;0.40;;;15.10;74.80;15.20;95539.00;;;;5017788;28;20305;-82
2022/11/04 03:57:57;;;;;;;0.37;0.30;;;15.10;74.60;15.20;95536.00;;;;5019035;28;20293;-82
2022/11/04 04:00:29;;;;;;;0.20;0.20;;;15.10;74.40;15.20;95541.00;;;;5013984;28;20213;-82
2022/11/04 04:03:13;;;;;;;0.30;0.30;;;15.10;74.50;15.20;95539.00;;;;5020374;28;20280;-82
2022/11/04 04:05:51;;;;;;;0.50;0.30;;;15.10;74.40;15.20;95541.00;;;;5019503;28;20725;-82
2022/11/04 04:08:34;;;;;;;0.67;0.50;;;15.10;74.40;15.20;95546.00;;;;5018637;28;20667;-82
2022/11/04 04:11:14;;;;;;;0.40;0.20;;;15.10;74.20;15.20;95544.00;;;;5015246;28;20770;-82
2022/11/04 04:13:53;;;;;;;0.17;0.17;;;15.10;74.20;15.20;95537.00;;;;5016847;28;20293;-82
2022/11/04 04:16:27;;;;;;;0.80;0.30;;;15.10;74.30;15.20;95542.00;;;;5014900;28;20663;-83
2022/11/04 04:19:02;;;;;;;0.67;0.50;;;15.10;74.30;15.20;95535.00;;;;5011962;28;20335;-83
2022/11/04 04:21:37;;;;;;;0.30;0.30;;;15.10;74.10;15.20;95527.00;;;;5015181;28;20228;-82
2022/11/04 04:29:45;;;;;;;0.40;0.40;;;15.00;73.80;15.20;95509.00;;;;5024148;28;20579;-83
2022/11/04 04:32:13;;;;;;;0.50;0.50;;;15.00;73.80;15.20;95505.00;;;;5018832;28;20236;-82
2022/11/04 04:34:42;;;;;;;0.50;0.40;;;15.00;73.80;15.20;95514.00;;;;5019513;28;20253;-82
2022/11/04 04:37:19;;;;;;;0.30;0.30;;;15.00;73.70;15.10;95516.00;;;;5020362;28;20197;-83
2022/11/04 04:45:25;;;;;;;0.23;0.23;;;15.00;73.70;15.10;95517.00;;;;5012359;28;20265;-82
2022/11/04 04:47:53;;;;;;;0.50;0.50;;;15.00;73.90;15.10;95513.00;;;;5009447;28;20277;-82
2022/11/04 04:50:22;;;;;;;0.30;0.30;;;15.00;73.90;15.10;95505.00;;;;5021618;28;20724;-82
2022/11/04 04:52:52;;;;;;;0.77;0.40;;;15.00;73.80;15.10;95491.00;;;;5021928;28;20206;-83
2022/11/04 04:55:20;;;;;;;0.40;0.40;;;14.90;73.80;15.10;95480.00;;;;5013822;28;20286;-83
2022/11/04 04:57:47;;;;;;;1.13;0.47;;;14.90;74.00;15.10;95483.00;;;;5014074;28;20208;-83
2022/11/04 05:00:18;;;;;;;0.43;0.43;;;14.90;74.00;15.10;95487.00;;;;5022997;28;20297;-82
2022/11/04 05:02:45;;;;;;;0.30;0.30;;;14.90;73.80;15.10;95501.00;;;;5010812;28;20439;-82
2022/11/04 05:05:13;;;;;;;0.40;0.40;;;14.90;73.70;15.10;95507.00;;;;5015434;28;20256;-82
2022/11/04 05:07:42;;;;;;;0.47;0.47;;;14.90;73.60;15.10;95526.00;;;;5026263;28;20217;-82
2022/11/04 05:10:13;;;;;;;0.40;0.40;;;14.90;73.70;15.10;95537.00;;;;5023796;28;20296;-82
2022/11/04 05:15:31;;;;;;;0.67;0.50;;;14.90;73.80;15.00;95537.00;;;;5020954;28;20225;-81
2022/11/04 05:18:01;;;;;;;0.40;0.40;;;14.90;74.30;15.00;95537.00;;;;5020998;28;20194;-82
2022/11/04 05:20:29;;;;;;;0.30;0.30;;;14.90;73.50;15.00;95528.00;;;;5027961;28;20229;-82
2022/11/04 05:22:57;;;;;;;0.23;0.23;;;14.90;73.40;15.00;95540.00;;;;5019445;28;20207;-82
2022/11/04 05:25:24;;;;;;;0.40;0.40;;;14.90;73.20;15.00;95535.00;;;;5022819;28;20198;-82
2022/11/04 05:27:52;;;;;;;0.20;0.20;;;14.90;73.10;15.00;95540.00;;;;5022782;28;20209;-82
2022/11/04 05:30:19;;;;;;;0.47;0.30;;;14.90;73.40;15.00;95555.00;;;;5023530;28;20206;-82
2022/11/04 05:32:46;;;;;;;1.37;0.60;;;14.80;73.40;15.00;95558.00;;;;5020229;28;20689;-82
2022/11/04 05:35:13;;;;;;;0.23;0.20;;;14.80;73.40;15.00;95559.00;;;;5020405;28;20575;-82
2022/11/04 05:37:40;;;;;;;0.40;0.40;;;14.80;73.30;15.00;95538.00;;;;5022514;28;20608;-82
2022/11/04 05:40:11;;;;;;;1.07;0.50;;;14.80;73.30;15.00;95536.00;;;;5019677;28;20593;-82
2022/11/04 05:42:38;;;;;;;0.40;0.27;;;14.80;73.30;15.00;95541.00;;;;5014873;28;20282;-81
2022/11/04 05:45:06;;;;;;;0.63;0.50;;;14.80;73.40;14.90;95538.00;;;;5022846;28;20265;-82
2022/11/04 05:47:34;;;;;;;0.50;0.37;;;14.80;73.50;14.90;95523.00;;;;5023564;28;20261;-82
2022/11/04 05:50:01;;;;;;;0.23;0.20;;;14.80;73.40;14.90;95528.00;;;;5017832;28;20201;-82
2022/11/04 05:52:28;;;;;;;0.37;0.37;;;14.80;73.30;14.90;95540.00;;;;5022440;28;20202;-82
2022/11/04 05:54:55;;;;;;;0.47;0.30;;;14.80;73.50;14.80;95541.00;;;;5023681;28;21094;-83
2022/11/04 05:57:24;;;;;;;0.40;0.40;;;14.70;73.70;14.80;95556.00;;;;5027966;28;20231;-83
2022/11/04 05:59:51;;;;;;;0.43;0.30;;;14.70;73.80;14.80;95563.00;;;;5020936;28;20608;-83
2022/11/04 06:02:18;;;;;;;0.40;0.40;;;14.70;73.80;14.80;95573.00;;;;5004242;28;20683;-84
2022/11/04 06:04:45;;;;;;;5.63;3.33;;;14.70;73.90;14.80;95564.00;;;;5018095;28;20257;-82
2022/11/04 06:07:12;;;;;;;13.50;7.43;;;14.70;73.90;14.80;95563.00;;;;5010436;28;20229;-82
2022/11/04 06:09:40;;;;;;;6.10;3.90;;;14.70;74.20;14.80;95564.00;;;;5009613;28;20210;-82
2022/11/04 06:12:10;;;;;;;2.67;1.90;;;14.70;74.70;14.80;95572.00;;;;5028313;28;20205;-81
2022/11/04 06:14:38;;;;;;;1.60;1.20;;;14.70;74.90;14.70;95585.00;;;;5025927;28;20677;-82
2022/11/04 06:17:05;;;;;;;0.70;0.50;;;14.60;75.00;14.70;95577.00;;;;5022615;28;20222;-81
2022/11/04 06:19:33;;;;;;;0.40;0.40;;;14.60;75.20;14.70;95589.00;;;;5024584;28;20221;-81
2022/11/04 06:22:00;;;;;;;0.30;0.30;;;14.60;75.20;14.60;95601.00;;;;5024230;28;20194;-82
2022/11/04 06:24:27;;;;;;;0.30;0.30;;;14.60;75.20;14.60;95589.00;;;;5022384;28;20249;-82
2022/11/04 06:26:55;;;;;;;0.30;0.30;;;14.50;75.00;14.50;95599.00;;;;5021726;28;20725;-82
2022/11/04 06:29:22;;;;;;;0.30;0.30;;;14.50;74.80;14.40;95605.00;;;;5022622;28;20285;-82
2022/11/04 06:31:50;;;;;;;0.30;0.20;;;14.40;75.00;14.40;95603.00;;;;5022081;28;20194;-82
2022/11/04 06:34:18;;;;;;;0.60;0.27;;;14.40;75.30;14.30;95588.00;;;;5020700;28;20273;-81
2022/11/04 06:36:45;;;;;;;2.40;0.60;;;14.30;75.50;14.30;95599.00;;;;5014384;28;20229;-82
2022/11/04 06:39:12;;;;;;;1.27;0.37;;;14.30;75.70;14.30;95596.00;;;;5018679;28;20222;-82
2022/11/04 06:41:40;;;;;;;0.57;0.30;;;14.30;75.90;14.20;95590.00;;;;5021768;28;20190;-82
2022/11/04 06:44:07;;;;;;;0.73;0.40;;;14.20;75.80;14.20;95594.00;;;;5021784;28;20419;-82
2022/11/04 06:46:38;;;;;;;0.50;0.40;;;14.20;76.00;14.10;95585.00;;;;5008660;28;20198;-82
2022/11/04 06:49:12;;;;;;;1.23;0.30;;;14.10;76.30;14.10;95571.00;;;;5021871;28;20221;-83
2022/11/04 06:51:39;;;;;;;0.73;0.40;;;14.10;76.80;14.10;95566.00;;;;5016096;28;20276;-83
2022/11/04 06:54:07;;;;;;;0.67;0.40;;;14.00;77.00;14.10;95573.00;;;;5014691;28;20225;-85
2022/11/04 06:56:34;;;;;;;1.63;0.73;;;14.00;77.30;14.10;95577.00;;;;5014438;28;20198;-85
2022/11/04 06:59:02;;;;;;;1.87;1.23;;;14.00;77.40;14.10;95566.00;;;;5013800;28;20263;-85
2022/11/04 07:01:34;;;;;;;0.70;0.70;;;14.00;77.60;14.10;95561.00;;;;5014957;28;20285;-84
2022/11/04 07:04:04;;;;;;;0.73;0.50;;;13.90;77.70;14.10;95559.00;;;;5023644;28;20225;-84
2022/11/04 07:06:32;;;;;;;1.00;0.50;;;13.90;77.80;14.10;95564.00;;;;5015647;28;20205;-82
2022/11/04 07:09:02;;;;;;;1.40;0.43;;;13.90;78.00;14.10;95556.00;;;;5016144;28;20229;-82
2022/11/04 07:11:32;;;;;;;0.83;0.83;;;13.90;78.10;14.10;95541.00;;;;5020519;28;20202;-80
2022/11/04 07:13:59;;;;;;;1.60;0.90;;;13.90;78.20;14.10;95543.00;;;;5019612;28;20222;-82
2022/11/04 07:16:27;;;;;;;0.77;0.70;;;13.90;78.30;14.10;95542.00;;;;5004603;28;20190;-82
2022/11/04 07:18:55;;;;;;;0.50;0.50;;;13.80;78.50;14.10;95548.00;;;;5003179;28;20202;-83
2022/11/04 07:21:23;;;;;;;0.93;0.83;;;13.80;78.50;14.10;95550.00;;;;5007407;28;20292;-83
2022/11/04 07:23:52;;;;;;;1.30;1.10;;;13.80;78.50;14.10;95552.00;;;;5014106;28;20588;-83
2022/11/04 07:26:19;;;;;;;1.33;1.00;;;13.80;78.40;14.10;95565.00;;;;5013835;28;20296;-83
2022/11/04 07:28:46;;;;;;;1.37;1.23;;;13.80;78.50;14.10;95565.00;;;;5011036;28;20253;-83
2022/11/04 07:31:15;;;;;;;2.13;0.90;;;13.80;78.70;14.00;95577.00;;;;5014467;28;20226;-82
2022/11/04 07:33:42;;;;;;;1.17;0.70;;;13.80;78.80;14.10;95580.00;;;;5013953;28;20268;-82
2022/11/04 07:36:13;;;;;;;1.03;0.83;;;13.80;78.80;14.00;95579.00;;;;5014206;28;20309;-82
2022/11/04 07:38:40;;;;;;;1.00;0.77;;;13.80;78.90;14.00;95587.00;;;;5010541;28;20286;-82
2022/11/04 07:41:08;;;;;;;0.40;0.40;;;13.80;79.00;14.00;95583.00;;;;5010163;28;20301;-82
2022/11/04 07:43:36;;;;;;;0.40;0.40;;;13.80;79.10;14.00;95591.00;;;;5006766;28;20304;-82
2022/11/04 07:46:05;;;;;;;1.57;0.60;;;13.80;79.10;14.00;95605.00;;;;5015730;28;20238;-80
2022/11/04 07:48:33;;;;;;;0.40;0.40;;;13.80;79.30;14.00;95622.00;;;;5015911;28;20206;-80
2022/11/04 07:51:01;;;;;;;0.53;0.50;;;13.80;79.30;14.00;95629.00;;;;5016086;28;20232;-81
2022/11/04 07:53:30;;;;;;;0.60;0.60;;;13.80;79.40;14.00;95633.00;;;;5000039;28;20221;-82
2022/11/04 07:55:57;;;;;;;1.43;0.80;;;13.80;79.40;14.00;95633.00;;;;5010696;28;20332;-81
2022/11/04 07:58:26;;;;;;;0.93;0.83;;;13.80;79.40;14.00;95629.00;;;;5015634;28;20281;-81
2022/11/04 08:00:59;;;;;;;0.97;0.53;;;13.80;79.70;14.00;95632.00;;;;5014351;28;20194;-82
2022/11/04 08:03:26;;;;;;;0.83;0.63;;;13.80;79.90;14.00;95637.00;;;;5004735;28;20241;-82
2022/11/04 08:05:58;;;;;;;0.97;0.50;;;13.80;79.90;14.00;95630.00;;;;5014159;28;20240;-81
2022/11/04 08:08:25;;;;;;;0.57;0.50;;;13.80;80.10;14.00;95629.00;;;;4995878;28;20675;-82
2022/11/04 08:10:55;;;;;;;0.40;0.40;;;13.80;80.00;14.00;95640.00;;;;5011061;28;20280;-84
2022/11/04 08:13:22;;;;;;;1.77;0.60;;;13.80;80.10;14.00;95638.00;;;;5014254;28;20253;-83
2022/11/04 08:15:51;;;;;;;0.53;0.47;;;13.80;80.00;14.00;95629.00;;;;5012432;28;20845;-84
2022/11/04 08:18:18;;;;;;;1.50;0.70;;;13.80;80.20;14.00;95622.00;;;;5005932;28;20253;-84
2022/11/04 08:20:49;;;;;;;1.50;0.50;;;13.80;80.20;14.00;95625.00;;;;5006097;28;20248;-84
2022/11/04 08:23:16;;;;;;;1.23;0.80;;;13.80;80.30;14.00;95610.00;;;;5011439;28;20220;-84
2022/11/04 08:25:45;;;;;;;1.63;1.00;;;13.80;80.20;14.00;95604.00;;;;5020789;28;20288;-83
2022/11/04 08:28:16;;;;;;;1.17;1.07;;;13.80;80.40;14.00;95609.00;;;;5013394;28;20277;-84
2022/11/04 08:30:54;;;;;;;1.30;1.20;;;13.80;80.50;14.00;95602.00;;;;4999260;28;20214;-84
2022/11/04 08:33:21;;;;;;;2.07;1.87;;;13.80;80.50;14.10;95593.00;;;;5013359;28;20284;-84
2022/11/04 08:35:48;;;;;;;2.53;1.80;;;13.80;80.70;14.10;95600.00;;;;5013539;28;20224;-83
2022/11/04 08:38:15;;;;;;;1.90;1.50;;;13.80;80.70;14.10;95587.00;;;;5013524;28;20304;-84
2022/11/04 08:40:43;;;;;;;1.30;1.20;;;13.80;80.70;14.10;95566.00;;;;5007378;28;20193;-84
2022/11/04 08:43:11;;;;;;;1.43;0.90;;;13.80;80.60;14.10;95571.00;;;;5023505;28;20226;-83
2022/11/04 08:45:40;;;;;;;2.00;1.17;;;13.80;80.50;14.10;95581.00;;;;5010176;28;20203;-83
2022/11/04 08:48:09;;;;;;;2.17;0.77;;;13.80;80.60;14.10;95589.00;;;;5003355;28;20208;-84
2022/11/04 08:50:41;;;;;;;1.20;0.93;;;13.90;80.80;14.10;95587.00;;;;5012344;28;20241;-84
2022/11/04 08:53:08;;;;;;;1.20;0.93;;;13.80;80.80;14.10;95580.00;;;;5012707;28;20213;-84
2022/11/04 08:55:39;;;;;;;0.80;0.60;;;13.90;80.80;14.10;95577.00;;;;5012957;28;20230;-84
2022/11/04 08:58:07;;;;;;;1.43;1.07;;;13.90;80.90;14.10;95585.00;;;;5011863;28;20289;-85
2022/11/04 09:00:35;;;;;;;1.43;1.33;;;13.80;80.90;14.10;95583.00;;;;5006712;28;20281;-84
2022/11/04 09:03:03;;;;;;;1.53;1.30;;;13.80;81.00;14.10;95578.00;;;;5012742;28;20763;-85
2022/11/04 09:05:32;;;;;;;3.80;2.30;;;13.80;81.00;14.10;95572.00;;;;5013316;28;20670;-84
2022/11/04 09:08:00;;;;;;;2.00;1.30;;;13.80;81.20;14.10;95568.00;;;;5013529;28;20274;-84
2022/11/04 09:10:28;;;;;;;3.00;1.23;;;13.80;81.30;14.10;95567.00;;;;5014547;28;20698;-83
2022/11/04 09:12:55;;;;;;;1.70;1.50;;;13.80;81.20;14.10;95569.00;;;;5013286;28;20645;-85
2022/11/04 09:15:22;;;;;;;1.70;1.60;;;13.80;81.20;14.10;95566.00;;;;5004849;28;20230;-84
2022/11/04 09:17:49;;;;;;;1.50;1.30;;;13.80;81.30;14.10;95561.00;;;;5013941;28;20722;-85
2022/11/04 09:20:17;;;;;;;1.93;1.53;;;13.80;81.40;14.00;95556.00;;;;5013351;28;20260;-84
2022/11/04 09:22:49;;;;;;;1.83;1.40;;;13.80;81.60;14.00;95552.00;;;;5012409;28;20546;-85
2022/11/04 09:25:16;;;;;;;2.60;1.70;;;13.80;81.70;14.10;95547.00;;;;4993961;28;20298;-84
2022/11/04 09:27:43;;;;;;;1.80;1.50;;;13.80;81.80;14.10;95546.00;;;;5013040;28;20229;-84
2022/11/04 09:30:12;;;;;;;1.80;1.50;;;13.80;81.90;14.10;95546.00;;;;5012798;28;20278;-84
2022/11/04 09:32:39;;;;;;;1.23;1.13;;;13.80;82.00;14.10;95544.00;;;;5011998;28;20651;-84
2022/11/04 09:35:07;;;;;;;2.03;1.43;;;13.80;82.00;14.10;95545.00;;;;5006198;28;20276;-84
2022/11/04 09:37:35;;;;;;;1.87;1.67;;;13.90;82.10;14.10;95543.00;;;;5013754;28;20660;-84
2022/11/04 09:40:04;;;;;;;1.33;1.10;;;13.90;82.20;14.10;95543.00;;;;5013561;28;20245;-83
2022/11/04 09:42:57;;;;;;;1.40;1.17;;;13.90;82.00;14.10;95536.00;;;;5009202;28;20263;-83
2022/11/04 09:45:28;;;;;;;1.40;1.30;;;13.90;82.20;14.10;95532.00;;;;5004524;28;20213;-83
2022/11/04 09:48:03;;;;;;;1.90;1.47;;;13.90;82.00;14.10;95538.00;;;;5013531;28;20229;-83
2022/11/04 09:50:45;;;;;;;1.87;1.60;;;13.90;82.00;14.10;95547.00;;;;5016743;28;20213;-84
2022/11/04 09:53:18;;;;;;;2.87;2.20;;;13.90;81.90;14.10;95549.00;;;;5013426;28;20555;-83
2022/11/04 09:55:55;;;;;;;2.30;2.10;;;13.90;81.80;14.20;95552.00;;;;5013278;28;20209;-84
2022/11/04 09:58:23;;;;;;;2.40;2.20;;;13.90;82.10;14.20;95553.00;;;;5016999;28;20281;-83
2022/11/04 10:00:59;;;;;;;1.63;1.43;;;13.90;82.10;14.20;95555.00;;;;5016283;28;20609;-83
2022/11/04 10:03:53;;;;;;;1.23;1.13;;;13.90;82.10;14.20;95545.00;;;;5012477;28;20217;-84
2022/11/04 10:06:38;;;;;;;1.53;1.43;;;13.90;82.30;14.20;95543.00;;;;5011074;28;20385;-84
2022/11/04 10:09:23;;;;;;;3.07;2.47;;;14.00;82.20;14.20;95557.00;;;;5010478;28;20213;-84
2022/11/04 10:12:09;;;;;;;3.97;3.13;;;14.00;82.20;14.30;95551.00;;;;5012820;28;20218;-84
2022/11/04 10:15:04;;;;;;;3.93;3.13;;;14.00;82.30;14.30;95554.00;;;;5013358;28;20622;-84
2022/11/04 10:18:04;;;;;;;4.60;3.10;;;14.00;82.50;14.40;95550.00;;;;5013559;28;20651;-84
2022/11/04 10:20:50;;;;;;;2.80;2.50;;;14.10;82.60;14.50;95544.00;;;;5011534;28;20225;-83
2022/11/04 10:23:24;;;;;;;3.37;2.53;;;14.10;82.60;14.50;95543.00;;;;5013914;28;20661;-83
2022/11/04 10:26:00;;;;;;;3.07;2.10;;;14.20;82.80;14.60;95549.00;;;;5018673;28;20276;-83
2022/11/04 10:28:37;;;;;;;2.30;1.80;;;14.20;82.80;14.70;95543.00;;;;5024013;28;20205;-83
2022/11/04 10:31:06;;;;;;;1.40;1.30;;;14.30;82.80;14.70;95552.00;;;;5012541;28;20674;-83
2022/11/04 10:33:39;;;;;;;1.20;1.10;;;14.30;82.70;14.80;95542.00;;;;5015885;28;20222;-83
2022/11/04 10:36:09;;;;;;;1.03;0.93;;;14.40;83.40;14.80;95542.00;;;;4997885;28;20255;-83
2022/11/04 10:38:42;;;;;;;0.87;0.87;;;14.40;82.50;14.80;95534.00;;;;5010946;28;20206;-83
2022/11/04 10:41:30;;;;;;;0.80;0.80;;;14.40;82.50;14.80;95541.00;;;;5015047;28;20194;-83
2022/11/04 10:44:06;;;;;;;0.80;0.70;;;14.50;82.60;14.80;95540.00;;;;5018589;28;20258;-83
2022/11/04 10:46:49;;;;;;;1.30;0.80;;;14.50;82.50;14.90;95524.00;;;;5016352;28;20218;-83
2022/11/04 10:50:04;;;;;;;1.37;0.70;;;14.50;82.50;14.90;95517.00;;;;5024489;28;20253;-83
2022/11/04 10:52:36;;;;;;;0.53;0.53;;;14.60;82.20;14.90;95506.00;;;;4999012;28;20217;-83
2022/11/04 10:55:11;;;;;;;0.80;0.70;;;14.60;81.90;14.90;95505.00;;;;5014133;28;20218;-82
2022/11/04 10:57:39;;;;;;;1.77;0.80;;;14.60;81.90;14.90;95498.00;;;;5019317;28;20558;-83
2022/11/04 11:00:11;;;;;;;0.77;0.50;;;14.60;81.80;15.00;95500.00;;;;5018775;28;20210;-83
2022/11/04 11:02:48;;;;;;;1.67;0.80;;;14.70;81.80;15.00;95505.00;;;;5018816;28;20233;-83
2022/11/04 11:05:24;;;;;;;0.60;0.50;;;14.70;81.60;15.00;95506.00;;;;5017981;28;20233;-83
2022/11/04 11:07:54;;;;;;;0.67;0.67;;;14.70;81.40;15.00;95500.00;;;;5008126;28;20248;-83
2022/11/04 11:10:26;;;;;;;0.80;0.77;;;14.70;81.40;15.00;95503.00;;;;5018672;28;20198;-83
2022/11/04 11:12:57;;;;;;;0.67;0.67;;;14.70;81.50;15.00;95507.00;;;;5011773;28;20193;-83
2022/11/04 11:15:34;;;;;;;0.73;0.67;;;14.70;81.40;15.00;95504.00;;;;5012917;28;20574;-83
2022/11/04 11:18:14;;;;;;;0.60;0.60;;;14.70;81.40;15.00;95493.00;;;;5013219;28;20556;-83
2022/11/04 11:20:43;;;;;;;0.67;0.67;;;14.70;81.20;15.00;95496.00;;;;5011032;28;20198;-83
2022/11/04 11:23:35;;;;;;;0.80;0.80;;;14.70;81.00;15.00;95508.00;;;;5017862;28;20210;-83
2022/11/04 11:26:05;;;;;;;0.70;0.70;;;14.80;80.80;15.00;95505.00;;;;5012562;28;20198;-83
2022/11/04 11:28:37;;;;;;;0.80;0.70;;;14.70;80.70;15.00;95504.00;;;;5018923;28;20202;-83
2022/11/04 11:31:22;;;;;;;0.93;0.90;;;14.70;80.60;15.00;95515.00;;;;5019898;28;20245;-83
2022/11/04 11:33:54;;;;;;;0.80;0.80;;;14.70;80.70;15.00;95524.00;;;;5010083;28;20224;-84
2022/11/04 11:36:25;;;;;;;1.80;0.70;;;14.80;80.80;15.00;95525.00;;;;5008767;28;21956;-83
2022/11/04 11:39:04;;;;;;;1.10;0.83;;;14.70;80.80;15.00;95532.00;;;;5013908;28;20198;-83
2022/11/04 11:41:50;;;;;;;1.30;1.10;;;14.80;80.70;15.00;95527.00;;;;5012317;28;20687;-83